sensor_id;sensor_type;location;lat;lon;timestamp;P1;durP1;ratioP1;P2;durP2;ratioP2
41653;SDS011;68687;52.030;7.110;2023-09-12T00:01:05;67.60;;;46.38;;
41653;SDS011;68687;52.030;7.110;2023-09-12T00:03:32;89.70;;;52.20;;
41653;SDS011;68687;52.030;7.110;2023-09-12T00:06:01;85.18;;;50.90;;
41653;SDS011;68687;52.030;7.110;2023-09-12T00:08:27;89.65;;;54.17;;
41653;SDS011;68687;52.030;7.110;2023-09-12T00:11:02;82.57;;;51.83;;
41653;SDS011;68687;52.030;7.110;2023-09-12T00:13:32;75.90;;;46.65;;
41653;SDS011;68687;52.030;7.110;2023-09-12T00:15:57;68.78;;;44.40;;
41653;SDS011;68687;52.030;7.110;2023-09-12T00:18:23;81.78;;;50.60;;
41653;SDS011;68687;52.030;7.110;2023-09-12T00:20:49;82.43;;;51.55;;
41653;SDS011;68687;52.030;7.110;2023-09-12T00:23:15;88.18;;;52.30;;
41653;SDS011;68687;52.030;7.110;2023-09-12T00:25:40;78.82;;;47.03;;
41653;SDS011;68687;52.030;7.110;2023-09-12T00:28:05;53.13;;;34.38;;
41653;SDS011;68687;52.030;7.110;2023-09-12T00:30:31;49.30;;;32.72;;
41653;SDS011;68687;52.030;7.110;2023-09-12T00:32:56;53.75;;;33.50;;
41653;SDS011;68687;52.030;7.110;2023-09-12T00:35:21;53.20;;;30.87;;
41653;SDS011;68687;52.030;7.110;2023-09-12T00:37:46;53.65;;;32.58;;
41653;SDS011;68687;52.030;7.110;2023-09-12T00:40:12;36.20;;;25.10;;
41653;SDS011;68687;52.030;7.110;2023-09-12T00:42:37;35.53;;;26.00;;
41653;SDS011;68687;52.030;7.110;2023-09-12T00:45:02;38.03;;;26.52;;
41653;SDS011;68687;52.030;7.110;2023-09-12T00:47:28;34.35;;;22.45;;
41653;SDS011;68687;52.030;7.110;2023-09-12T00:49:54;34.20;;;24.20;;
41653;SDS011;68687;52.030;7.110;2023-09-12T00:52:21;40.75;;;27.55;;
41653;SDS011;68687;52.030;7.110;2023-09-12T00:54:49;50.28;;;31.52;;
41653;SDS011;68687;52.030;7.110;2023-09-12T00:57:19;46.95;;;29.85;;
41653;SDS011;68687;52.030;7.110;2023-09-12T00:59:49;41.28;;;26.52;;
41653;SDS011;68687;52.030;7.110;2023-09-12T01:02:15;37.40;;;26.58;;
41653;SDS011;68687;52.030;7.110;2023-09-12T01:04:41;40.97;;;28.10;;
41653;SDS011;68687;52.030;7.110;2023-09-12T01:07:07;50.95;;;29.65;;
41653;SDS011;68687;52.030;7.110;2023-09-12T01:09:32;45.20;;;28.13;;
41653;SDS011;68687;52.030;7.110;2023-09-12T01:12:04;35.58;;;24.27;;
41653;SDS011;68687;52.030;7.110;2023-09-12T01:14:30;33.42;;;22.75;;
41653;SDS011;68687;52.030;7.110;2023-09-12T01:16:56;28.63;;;21.08;;
41653;SDS011;68687;52.030;7.110;2023-09-12T01:19:22;29.33;;;21.23;;
41653;SDS011;68687;52.030;7.110;2023-09-12T01:21:59;28.73;;;20.23;;
41653;SDS011;68687;52.030;7.110;2023-09-12T01:29:59;24.00;;;20.17;;
41653;SDS011;68687;52.030;7.110;2023-09-12T01:32:28;26.88;;;20.35;;
41653;SDS011;68687;52.030;7.110;2023-09-12T01:34:57;28.52;;;20.35;;
41653;SDS011;68687;52.030;7.110;2023-09-12T01:37:23;30.80;;;21.98;;
41653;SDS011;68687;52.030;7.110;2023-09-12T01:39:48;31.77;;;23.38;;
41653;SDS011;68687;52.030;7.110;2023-09-12T01:42:21;28.98;;;22.90;;
41653;SDS011;68687;52.030;7.110;2023-09-12T01:44:47;27.38;;;23.25;;
41653;SDS011;68687;52.030;7.110;2023-09-12T01:47:22;28.30;;;22.88;;
41653;SDS011;68687;52.030;7.110;2023-09-12T01:49:51;29.65;;;22.95;;
41653;SDS011;68687;52.030;7.110;2023-09-12T01:52:20;28.85;;;20.83;;
41653;SDS011;68687;52.030;7.110;2023-09-12T01:54:49;28.15;;;18.92;;
41653;SDS011;68687;52.030;7.110;2023-09-12T01:57:15;23.80;;;17.08;;
41653;SDS011;68687;52.030;7.110;2023-09-12T01:59:41;24.13;;;18.33;;
41653;SDS011;68687;52.030;7.110;2023-09-12T02:02:07;21.25;;;18.05;;
41653;SDS011;68687;52.030;7.110;2023-09-12T02:04:32;20.60;;;16.88;;
41653;SDS011;68687;52.030;7.110;2023-09-12T02:07:00;21.88;;;16.48;;
41653;SDS011;68687;52.030;7.110;2023-09-12T02:09:26;17.85;;;15.57;;
41653;SDS011;68687;52.030;7.110;2023-09-12T02:11:51;25.08;;;16.23;;
41653;SDS011;68687;52.030;7.110;2023-09-12T02:14:16;20.48;;;15.68;;
41653;SDS011;68687;52.030;7.110;2023-09-12T02:16:45;24.50;;;16.55;;
41653;SDS011;68687;52.030;7.110;2023-09-12T02:19:10;18.67;;;15.93;;
41653;SDS011;68687;52.030;7.110;2023-09-12T02:21:35;24.05;;;17.23;;
41653;SDS011;68687;52.030;7.110;2023-09-12T02:24:01;19.85;;;17.10;;
41653;SDS011;68687;52.030;7.110;2023-09-12T02:26:26;24.55;;;17.63;;
41653;SDS011;68687;52.030;7.110;2023-09-12T02:28:52;20.85;;;17.30;;
41653;SDS011;68687;52.030;7.110;2023-09-12T02:31:17;27.70;;;19.95;;
41653;SDS011;68687;52.030;7.110;2023-09-12T02:33:42;28.85;;;20.77;;
41653;SDS011;68687;52.030;7.110;2023-09-12T02:36:08;25.33;;;20.42;;
41653;SDS011;68687;52.030;7.110;2023-09-12T02:38:33;30.48;;;21.83;;
41653;SDS011;68687;52.030;7.110;2023-09-12T02:41:01;31.65;;;21.70;;
41653;SDS011;68687;52.030;7.110;2023-09-12T02:43:27;25.23;;;19.90;;
41653;SDS011;68687;52.030;7.110;2023-09-12T02:45:53;32.70;;;20.17;;
41653;SDS011;68687;52.030;7.110;2023-09-12T02:48:18;23.33;;;19.77;;
41653;SDS011;68687;52.030;7.110;2023-09-12T02:50:47;25.48;;;19.67;;
41653;SDS011;68687;52.030;7.110;2023-09-12T02:53:12;27.27;;;21.10;;
41653;SDS011;68687;52.030;7.110;2023-09-12T02:55:41;22.80;;;19.02;;
41653;SDS011;68687;52.030;7.110;2023-09-12T02:58:07;23.42;;;17.63;;
41653;SDS011;68687;52.030;7.110;2023-09-12T03:00:32;24.80;;;18.67;;
41653;SDS011;68687;52.030;7.110;2023-09-12T03:02:58;25.95;;;19.65;;
41653;SDS011;68687;52.030;7.110;2023-09-12T03:05:23;28.27;;;20.65;;
41653;SDS011;68687;52.030;7.110;2023-09-12T03:07:48;30.13;;;21.50;;
41653;SDS011;68687;52.030;7.110;2023-09-12T03:10:14;24.75;;;19.65;;
41653;SDS011;68687;52.030;7.110;2023-09-12T03:12:39;23.30;;;18.42;;
41653;SDS011;68687;52.030;7.110;2023-09-12T03:15:04;28.02;;;20.15;;
41653;SDS011;68687;52.030;7.110;2023-09-12T03:17:30;23.45;;;19.55;;
41653;SDS011;68687;52.030;7.110;2023-09-12T03:19:55;26.80;;;19.45;;
41653;SDS011;68687;52.030;7.110;2023-09-12T03:22:21;20.92;;;17.77;;
41653;SDS011;68687;52.030;7.110;2023-09-12T03:24:46;27.77;;;19.30;;
41653;SDS011;68687;52.030;7.110;2023-09-12T03:27:11;21.02;;;18.50;;
41653;SDS011;68687;52.030;7.110;2023-09-12T03:29:37;28.27;;;18.45;;
41653;SDS011;68687;52.030;7.110;2023-09-12T03:32:02;24.00;;;19.33;;
41653;SDS011;68687;52.030;7.110;2023-09-12T03:34:27;23.25;;;18.67;;
41653;SDS011;68687;52.030;7.110;2023-09-12T03:36:53;23.52;;;18.20;;
41653;SDS011;68687;52.030;7.110;2023-09-12T03:39:18;24.42;;;16.85;;
41653;SDS011;68687;52.030;7.110;2023-09-12T03:41:44;22.40;;;17.73;;
41653;SDS011;68687;52.030;7.110;2023-09-12T03:44:15;22.67;;;17.13;;
41653;SDS011;68687;52.030;7.110;2023-09-12T03:46:40;24.88;;;16.60;;
41653;SDS011;68687;52.030;7.110;2023-09-12T03:49:09;18.95;;;15.32;;
41653;SDS011;68687;52.030;7.110;2023-09-12T03:51:34;17.42;;;15.40;;
41653;SDS011;68687;52.030;7.110;2023-09-12T03:54:09;18.60;;;15.32;;
41653;SDS011;68687;52.030;7.110;2023-09-12T03:56:34;17.02;;;15.07;;
41653;SDS011;68687;52.030;7.110;2023-09-12T03:58:59;15.38;;;13.70;;
41653;SDS011;68687;52.030;7.110;2023-09-12T04:01:25;17.38;;;15.63;;
41653;SDS011;68687;52.030;7.110;2023-09-12T04:03:51;22.05;;;16.70;;
41653;SDS011;68687;52.030;7.110;2023-09-12T04:06:16;19.80;;;16.73;;
41653;SDS011;68687;52.030;7.110;2023-09-12T04:08:44;21.10;;;16.25;;
41653;SDS011;68687;52.030;7.110;2023-09-12T04:11:12;23.60;;;17.05;;
41653;SDS011;68687;52.030;7.110;2023-09-12T04:13:38;20.10;;;16.23;;
41653;SDS011;68687;52.030;7.110;2023-09-12T04:16:03;18.60;;;16.65;;
41653;SDS011;68687;52.030;7.110;2023-09-12T04:18:31;19.73;;;17.35;;
41653;SDS011;68687;52.030;7.110;2023-09-12T04:20:57;20.83;;;17.30;;
41653;SDS011;68687;52.030;7.110;2023-09-12T04:23:24;24.83;;;18.02;;
41653;SDS011;68687;52.030;7.110;2023-09-12T04:25:50;19.45;;;17.05;;
41653;SDS011;68687;52.030;7.110;2023-09-12T04:28:15;26.80;;;19.08;;
41653;SDS011;68687;52.030;7.110;2023-09-12T04:30:43;22.77;;;19.50;;
41653;SDS011;68687;52.030;7.110;2023-09-12T04:33:12;21.50;;;18.65;;
41653;SDS011;68687;52.030;7.110;2023-09-12T04:35:37;22.52;;;19.35;;
41653;SDS011;68687;52.030;7.110;2023-09-12T04:38:03;23.85;;;19.98;;
41653;SDS011;68687;52.030;7.110;2023-09-12T04:40:31;28.83;;;22.40;;
41653;SDS011;68687;52.030;7.110;2023-09-12T04:42:56;23.48;;;18.95;;
41653;SDS011;68687;52.030;7.110;2023-09-12T04:45:25;23.13;;;19.85;;
41653;SDS011;68687;52.030;7.110;2023-09-12T04:47:50;25.45;;;21.27;;
41653;SDS011;68687;52.030;7.110;2023-09-12T04:50:15;25.77;;;19.85;;
41653;SDS011;68687;52.030;7.110;2023-09-12T04:52:41;23.85;;;19.92;;
41653;SDS011;68687;52.030;7.110;2023-09-12T04:55:06;24.05;;;18.77;;
41653;SDS011;68687;52.030;7.110;2023-09-12T04:57:32;28.63;;;21.38;;
41653;SDS011;68687;52.030;7.110;2023-09-12T04:59:58;25.55;;;21.08;;
41653;SDS011;68687;52.030;7.110;2023-09-12T05:02:23;35.53;;;20.67;;
41653;SDS011;68687;52.030;7.110;2023-09-12T05:04:50;26.13;;;21.90;;
41653;SDS011;68687;52.030;7.110;2023-09-12T05:07:15;24.58;;;20.42;;
41653;SDS011;68687;52.030;7.110;2023-09-12T05:09:40;23.40;;;20.77;;
41653;SDS011;68687;52.030;7.110;2023-09-12T05:12:05;22.45;;;20.27;;
41653;SDS011;68687;52.030;7.110;2023-09-12T05:14:31;26.23;;;20.40;;
41653;SDS011;68687;52.030;7.110;2023-09-12T05:16:56;24.77;;;21.08;;
41653;SDS011;68687;52.030;7.110;2023-09-12T05:19:21;27.85;;;20.60;;
41653;SDS011;68687;52.030;7.110;2023-09-12T05:21:48;30.10;;;22.17;;
41653;SDS011;68687;52.030;7.110;2023-09-12T05:24:13;26.85;;;23.35;;
41653;SDS011;68687;52.030;7.110;2023-09-12T05:26:41;24.05;;;21.05;;
41653;SDS011;68687;52.030;7.110;2023-09-12T05:29:07;28.83;;;23.48;;
41653;SDS011;68687;52.030;7.110;2023-09-12T05:31:32;22.30;;;19.90;;
41653;SDS011;68687;52.030;7.110;2023-09-12T05:34:00;24.25;;;19.80;;
41653;SDS011;68687;52.030;7.110;2023-09-12T05:36:29;30.15;;;21.60;;
41653;SDS011;68687;52.030;7.110;2023-09-12T05:38:54;32.92;;;21.25;;
41653;SDS011;68687;52.030;7.110;2023-09-12T05:41:19;24.27;;;19.50;;
41653;SDS011;68687;52.030;7.110;2023-09-12T05:43:47;23.52;;;21.02;;
41653;SDS011;68687;52.030;7.110;2023-09-12T05:46:13;31.52;;;21.40;;
41653;SDS011;68687;52.030;7.110;2023-09-12T05:48:38;26.10;;;19.95;;
41653;SDS011;68687;52.030;7.110;2023-09-12T05:51:09;21.90;;;18.67;;
41653;SDS011;68687;52.030;7.110;2023-09-12T05:53:37;31.35;;;21.80;;
41653;SDS011;68687;52.030;7.110;2023-09-12T05:56:06;24.95;;;19.65;;
41653;SDS011;68687;52.030;7.110;2023-09-12T05:58:31;28.52;;;20.33;;
41653;SDS011;68687;52.030;7.110;2023-09-12T06:00:56;28.27;;;20.10;;
41653;SDS011;68687;52.030;7.110;2023-09-12T06:03:22;34.45;;;19.77;;
41653;SDS011;68687;52.030;7.110;2023-09-12T06:05:47;31.00;;;22.60;;
41653;SDS011;68687;52.030;7.110;2023-09-12T06:08:12;31.48;;;21.98;;
41653;SDS011;68687;52.030;7.110;2023-09-12T06:10:37;31.35;;;21.52;;
41653;SDS011;68687;52.030;7.110;2023-09-12T06:13:03;23.15;;;20.50;;
41653;SDS011;68687;52.030;7.110;2023-09-12T06:15:28;26.20;;;19.05;;
41653;SDS011;68687;52.030;7.110;2023-09-12T06:17:56;25.13;;;19.92;;
41653;SDS011;68687;52.030;7.110;2023-09-12T06:20:22;25.77;;;20.52;;
41653;SDS011;68687;52.030;7.110;2023-09-12T06:22:48;29.48;;;21.65;;
41653;SDS011;68687;52.030;7.110;2023-09-12T06:25:17;33.67;;;23.40;;
41653;SDS011;68687;52.030;7.110;2023-09-12T06:27:42;33.25;;;23.40;;
41653;SDS011;68687;52.030;7.110;2023-09-12T06:30:07;28.83;;;20.75;;
41653;SDS011;68687;52.030;7.110;2023-09-12T06:32:36;32.33;;;21.92;;
41653;SDS011;68687;52.030;7.110;2023-09-12T06:35:02;35.40;;;23.70;;
41653;SDS011;68687;52.030;7.110;2023-09-12T06:37:28;39.38;;;26.42;;
41653;SDS011;68687;52.030;7.110;2023-09-12T06:39:56;44.58;;;26.92;;
41653;SDS011;68687;52.030;7.110;2023-09-12T06:42:21;46.83;;;30.30;;
41653;SDS011;68687;52.030;7.110;2023-09-12T06:44:46;49.05;;;29.95;;
41653;SDS011;68687;52.030;7.110;2023-09-12T06:47:12;51.15;;;31.88;;
41653;SDS011;68687;52.030;7.110;2023-09-12T06:49:38;47.47;;;30.52;;
41653;SDS011;68687;52.030;7.110;2023-09-12T06:52:03;45.83;;;29.63;;
41653;SDS011;68687;52.030;7.110;2023-09-12T06:54:29;49.95;;;31.77;;
41653;SDS011;68687;52.030;7.110;2023-09-12T06:56:54;49.92;;;32.85;;
41653;SDS011;68687;52.030;7.110;2023-09-12T06:59:20;43.47;;;28.92;;
41653;SDS011;68687;52.030;7.110;2023-09-12T07:01:45;47.85;;;32.55;;
41653;SDS011;68687;52.030;7.110;2023-09-12T07:04:10;56.78;;;33.90;;
41653;SDS011;68687;52.030;7.110;2023-09-12T07:06:35;48.92;;;32.55;;
41653;SDS011;68687;52.030;7.110;2023-09-12T07:09:01;57.05;;;35.47;;
41653;SDS011;68687;52.030;7.110;2023-09-12T07:11:27;60.30;;;35.72;;
41653;SDS011;68687;52.030;7.110;2023-09-12T07:13:55;63.03;;;36.40;;
41653;SDS011;68687;52.030;7.110;2023-09-12T07:16:20;63.10;;;38.25;;
41653;SDS011;68687;52.030;7.110;2023-09-12T07:18:47;61.95;;;38.15;;
41653;SDS011;68687;52.030;7.110;2023-09-12T07:21:13;63.83;;;35.92;;
41653;SDS011;68687;52.030;7.110;2023-09-12T07:23:38;65.50;;;36.88;;
41653;SDS011;68687;52.030;7.110;2023-09-12T07:26:04;60.83;;;35.45;;
41653;SDS011;68687;52.030;7.110;2023-09-12T07:28:29;57.10;;;34.90;;
41653;SDS011;68687;52.030;7.110;2023-09-12T07:30:55;54.67;;;33.90;;
41653;SDS011;68687;52.030;7.110;2023-09-12T07:33:21;50.85;;;31.67;;
41653;SDS011;68687;52.030;7.110;2023-09-12T07:35:47;49.90;;;32.90;;
41653;SDS011;68687;52.030;7.110;2023-09-12T07:38:13;43.42;;;29.73;;
41653;SDS011;68687;52.030;7.110;2023-09-12T07:40:42;43.63;;;30.33;;
41653;SDS011;68687;52.030;7.110;2023-09-12T07:43:07;42.22;;;28.33;;
41653;SDS011;68687;52.030;7.110;2023-09-12T07:45:32;53.47;;;30.02;;
41653;SDS011;68687;52.030;7.110;2023-09-12T07:48:02;42.20;;;28.13;;
41653;SDS011;68687;52.030;7.110;2023-09-12T07:50:32;48.17;;;31.55;;
41653;SDS011;68687;52.030;7.110;2023-09-12T07:52:57;44.85;;;27.92;;
41653;SDS011;68687;52.030;7.110;2023-09-12T07:55:22;47.92;;;29.35;;
41653;SDS011;68687;52.030;7.110;2023-09-12T07:57:48;52.13;;;31.27;;
41653;SDS011;68687;52.030;7.110;2023-09-12T08:00:13;49.27;;;31.73;;
41653;SDS011;68687;52.030;7.110;2023-09-12T08:02:38;46.95;;;29.80;;
41653;SDS011;68687;52.030;7.110;2023-09-12T08:05:04;50.45;;;31.77;;
41653;SDS011;68687;52.030;7.110;2023-09-12T08:07:33;55.58;;;35.05;;
41653;SDS011;68687;52.030;7.110;2023-09-12T08:09:59;59.83;;;36.35;;
41653;SDS011;68687;52.030;7.110;2023-09-12T08:12:25;49.28;;;32.42;;
41653;SDS011;68687;52.030;7.110;2023-09-12T08:14:55;55.88;;;32.22;;
41653;SDS011;68687;52.030;7.110;2023-09-12T08:17:21;55.38;;;34.17;;
41653;SDS011;68687;52.030;7.110;2023-09-12T08:19:47;59.70;;;35.63;;
41653;SDS011;68687;52.030;7.110;2023-09-12T08:22:12;53.10;;;33.20;;
41653;SDS011;68687;52.030;7.110;2023-09-12T08:24:38;56.35;;;35.95;;
41653;SDS011;68687;52.030;7.110;2023-09-12T08:27:13;59.35;;;35.28;;
41653;SDS011;68687;52.030;7.110;2023-09-12T08:29:38;55.00;;;35.00;;
41653;SDS011;68687;52.030;7.110;2023-09-12T08:32:04;63.03;;;36.97;;
41653;SDS011;68687;52.030;7.110;2023-09-12T08:34:29;53.53;;;34.67;;
41653;SDS011;68687;52.030;7.110;2023-09-12T08:36:54;62.78;;;37.90;;
41653;SDS011;68687;52.030;7.110;2023-09-12T08:39:23;62.90;;;37.22;;
41653;SDS011;68687;52.030;7.110;2023-09-12T08:41:50;52.00;;;33.33;;
41653;SDS011;68687;52.030;7.110;2023-09-12T08:44:16;61.97;;;34.95;;
41653;SDS011;68687;52.030;7.110;2023-09-12T08:46:43;55.28;;;33.47;;
41653;SDS011;68687;52.030;7.110;2023-09-12T08:49:12;47.85;;;31.85;;
41653;SDS011;68687;52.030;7.110;2023-09-12T08:51:38;53.80;;;34.28;;
41653;SDS011;68687;52.030;7.110;2023-09-12T08:54:04;53.80;;;34.10;;
41653;SDS011;68687;52.030;7.110;2023-09-12T08:56:30;50.72;;;34.55;;
41653;SDS011;68687;52.030;7.110;2023-09-12T08:58:57;54.42;;;37.40;;
41653;SDS011;68687;52.030;7.110;2023-09-12T09:01:24;53.65;;;35.67;;
41653;SDS011;68687;52.030;7.110;2023-09-12T09:03:53;57.47;;;36.22;;
41653;SDS011;68687;52.030;7.110;2023-09-12T09:06:19;54.03;;;34.30;;
41653;SDS011;68687;52.030;7.110;2023-09-12T09:08:46;49.17;;;33.72;;
41653;SDS011;68687;52.030;7.110;2023-09-12T09:11:13;47.25;;;32.97;;
41653;SDS011;68687;52.030;7.110;2023-09-12T09:13:38;49.15;;;33.95;;
41653;SDS011;68687;52.030;7.110;2023-09-12T09:16:16;47.63;;;31.73;;
41653;SDS011;68687;52.030;7.110;2023-09-12T09:19:03;42.35;;;30.13;;
41653;SDS011;68687;52.030;7.110;2023-09-12T09:21:36;42.55;;;30.00;;
41653;SDS011;68687;52.030;7.110;2023-09-12T09:24:13;38.95;;;28.98;;
41653;SDS011;68687;52.030;7.110;2023-09-12T09:26:49;42.88;;;29.08;;
41653;SDS011;68687;52.030;7.110;2023-09-12T09:29:19;41.67;;;30.40;;
41653;SDS011;68687;52.030;7.110;2023-09-12T09:31:46;42.92;;;30.30;;
41653;SDS011;68687;52.030;7.110;2023-09-12T09:34:13;44.05;;;30.17;;
41653;SDS011;68687;52.030;7.110;2023-09-12T09:36:44;41.88;;;30.40;;
41653;SDS011;68687;52.030;7.110;2023-09-12T09:39:12;40.45;;;30.10;;
41653;SDS011;68687;52.030;7.110;2023-09-12T09:41:38;42.00;;;27.88;;
41653;SDS011;68687;52.030;7.110;2023-09-12T09:44:09;36.63;;;26.42;;
41653;SDS011;68687;52.030;7.110;2023-09-12T09:46:38;29.05;;;22.45;;
41653;SDS011;68687;52.030;7.110;2023-09-12T09:49:03;30.25;;;22.83;;
41653;SDS011;68687;52.030;7.110;2023-09-12T09:51:31;29.85;;;23.45;;
41653;SDS011;68687;52.030;7.110;2023-09-12T09:53:57;29.65;;;23.73;;
41653;SDS011;68687;52.030;7.110;2023-09-12T09:56:23;30.40;;;24.88;;
41653;SDS011;68687;52.030;7.110;2023-09-12T09:58:53;29.88;;;22.67;;
41653;SDS011;68687;52.030;7.110;2023-09-12T10:01:20;29.27;;;22.98;;
41653;SDS011;68687;52.030;7.110;2023-09-12T10:03:47;32.17;;;24.00;;
41653;SDS011;68687;52.030;7.110;2023-09-12T10:06:17;29.52;;;24.20;;
41653;SDS011;68687;52.030;7.110;2023-09-12T10:08:44;28.80;;;23.00;;
41653;SDS011;68687;52.030;7.110;2023-09-12T10:11:15;35.97;;;26.80;;
41653;SDS011;68687;52.030;7.110;2023-09-12T10:13:46;30.42;;;25.13;;
41653;SDS011;68687;52.030;7.110;2023-09-12T10:16:17;24.30;;;20.73;;
41653;SDS011;68687;52.030;7.110;2023-09-12T10:18:57;26.52;;;20.45;;
41653;SDS011;68687;52.030;7.110;2023-09-12T10:21:30;25.58;;;21.25;;
41653;SDS011;68687;52.030;7.110;2023-09-12T10:23:59;26.00;;;20.20;;
41653;SDS011;68687;52.030;7.110;2023-09-12T10:26:29;29.13;;;21.48;;
41653;SDS011;68687;52.030;7.110;2023-09-12T10:28:59;25.42;;;19.83;;
41653;SDS011;68687;52.030;7.110;2023-09-12T10:31:27;23.58;;;19.30;;
41653;SDS011;68687;52.030;7.110;2023-09-12T10:33:59;21.15;;;17.80;;
41653;SDS011;68687;52.030;7.110;2023-09-12T10:36:27;24.98;;;20.10;;
41653;SDS011;68687;52.030;7.110;2023-09-12T10:38:54;21.63;;;18.25;;
41653;SDS011;68687;52.030;7.110;2023-09-12T10:41:20;19.65;;;17.00;;
41653;SDS011;68687;52.030;7.110;2023-09-12T10:43:46;18.77;;;15.07;;
41653;SDS011;68687;52.030;7.110;2023-09-12T10:46:17;14.25;;;12.73;;
41653;SDS011;68687;52.030;7.110;2023-09-12T10:48:42;14.50;;;13.02;;
41653;SDS011;68687;52.030;7.110;2023-09-12T10:51:08;12.52;;;11.23;;
41653;SDS011;68687;52.030;7.110;2023-09-12T10:53:35;12.35;;;11.10;;
41653;SDS011;68687;52.030;7.110;2023-09-12T10:56:20;12.38;;;11.18;;
41653;SDS011;68687;52.030;7.110;2023-09-12T11:01:28;14.05;;;12.65;;
41653;SDS011;68687;52.030;7.110;2023-09-12T11:03:54;13.85;;;11.93;;
41653;SDS011;68687;52.030;7.110;2023-09-12T11:06:20;12.53;;;11.33;;
41653;SDS011;68687;52.030;7.110;2023-09-12T11:12:09;13.15;;;11.35;;
41653;SDS011;68687;52.030;7.110;2023-09-12T11:15:06;12.93;;;11.30;;
41653;SDS011;68687;52.030;7.110;2023-09-12T11:17:38;12.02;;;10.82;;
41653;SDS011;68687;52.030;7.110;2023-09-12T11:20:04;14.50;;;11.30;;
41653;SDS011;68687;52.030;7.110;2023-09-12T11:22:35;13.80;;;10.77;;
41653;SDS011;68687;52.030;7.110;2023-09-12T11:25:04;12.18;;;10.98;;
41653;SDS011;68687;52.030;7.110;2023-09-12T11:27:31;12.13;;;11.02;;
41653;SDS011;68687;52.030;7.110;2023-09-12T11:30:06;12.18;;;11.05;;
41653;SDS011;68687;52.030;7.110;2023-09-12T11:32:36;12.00;;;10.80;;
41653;SDS011;68687;52.030;7.110;2023-09-12T11:35:07;14.82;;;11.73;;
41653;SDS011;68687;52.030;7.110;2023-09-12T11:37:33;12.23;;;10.70;;
41653;SDS011;68687;52.030;7.110;2023-09-12T11:40:02;13.50;;;11.80;;
41653;SDS011;68687;52.030;7.110;2023-09-12T11:42:44;13.45;;;12.10;;
41653;SDS011;68687;52.030;7.110;2023-09-12T11:45:12;12.75;;;11.27;;
41653;SDS011;68687;52.030;7.110;2023-09-12T11:47:40;14.43;;;11.88;;
41653;SDS011;68687;52.030;7.110;2023-09-12T11:50:06;13.30;;;11.90;;
41653;SDS011;68687;52.030;7.110;2023-09-12T11:52:35;14.20;;;12.70;;
41653;SDS011;68687;52.030;7.110;2023-09-12T11:55:02;13.60;;;11.18;;
41653;SDS011;68687;52.030;7.110;2023-09-12T11:57:27;11.95;;;10.75;;
41653;SDS011;68687;52.030;7.110;2023-09-12T11:59:53;11.90;;;10.60;;
41653;SDS011;68687;52.030;7.110;2023-09-12T12:02:18;13.55;;;11.63;;
41653;SDS011;68687;52.030;7.110;2023-09-12T12:04:44;17.52;;;12.00;;
41653;SDS011;68687;52.030;7.110;2023-09-12T12:07:10;14.82;;;12.02;;
41653;SDS011;68687;52.030;7.110;2023-09-12T12:09:36;13.10;;;11.80;;
41653;SDS011;68687;52.030;7.110;2023-09-12T12:12:08;12.30;;;11.13;;
41653;SDS011;68687;52.030;7.110;2023-09-12T12:14:38;16.42;;;11.95;;
41653;SDS011;68687;52.030;7.110;2023-09-12T12:17:10;13.43;;;11.50;;
41653;SDS011;68687;52.030;7.110;2023-09-12T12:19:44;13.23;;;11.68;;
41653;SDS011;68687;52.030;7.110;2023-09-12T12:22:10;13.27;;;11.97;;
41653;SDS011;68687;52.030;7.110;2023-09-12T12:24:36;14.10;;;11.70;;
41653;SDS011;68687;52.030;7.110;2023-09-12T12:27:03;14.93;;;12.43;;
41653;SDS011;68687;52.030;7.110;2023-09-12T12:29:29;12.05;;;10.88;;
41653;SDS011;68687;52.030;7.110;2023-09-12T12:31:59;11.80;;;10.60;;
41653;SDS011;68687;52.030;7.110;2023-09-12T12:34:26;12.75;;;10.55;;
41653;SDS011;68687;52.030;7.110;2023-09-12T12:36:51;10.77;;;8.93;;
41653;SDS011;68687;52.030;7.110;2023-09-12T12:39:18;10.30;;;8.32;;
41653;SDS011;68687;52.030;7.110;2023-09-12T12:41:43;11.20;;;8.93;;
41653;SDS011;68687;52.030;7.110;2023-09-12T12:44:12;11.52;;;9.32;;
41653;SDS011;68687;52.030;7.110;2023-09-12T12:46:51;12.02;;;8.52;;
41653;SDS011;68687;52.030;7.110;2023-09-12T12:49:18;12.60;;;8.63;;
41653;SDS011;68687;52.030;7.110;2023-09-12T12:51:44;15.13;;;9.48;;
41653;SDS011;68687;52.030;7.110;2023-09-12T12:54:09;10.52;;;9.40;;
41653;SDS011;68687;52.030;7.110;2023-09-12T12:56:35;12.23;;;10.68;;
41653;SDS011;68687;52.030;7.110;2023-09-12T12:59:01;14.73;;;11.40;;
41653;SDS011;68687;52.030;7.110;2023-09-12T13:01:37;11.10;;;9.93;;
41653;SDS011;68687;52.030;7.110;2023-09-12T13:04:10;16.13;;;11.77;;
41653;SDS011;68687;52.030;7.110;2023-09-12T13:06:35;14.77;;;10.52;;
41653;SDS011;68687;52.030;7.110;2023-09-12T13:09:04;13.90;;;11.20;;
41653;SDS011;68687;52.030;7.110;2023-09-12T13:11:30;13.98;;;10.23;;
41653;SDS011;68687;52.030;7.110;2023-09-12T13:13:59;13.73;;;10.52;;
41653;SDS011;68687;52.030;7.110;2023-09-12T13:16:24;14.15;;;11.43;;
41653;SDS011;68687;52.030;7.110;2023-09-12T13:18:53;11.73;;;9.80;;
41653;SDS011;68687;52.030;7.110;2023-09-12T13:21:18;13.55;;;11.23;;
41653;SDS011;68687;52.030;7.110;2023-09-12T13:23:43;13.52;;;10.60;;
41653;SDS011;68687;52.030;7.110;2023-09-12T13:26:09;12.53;;;9.20;;
41653;SDS011;68687;52.030;7.110;2023-09-12T13:28:35;10.20;;;9.00;;
41653;SDS011;68687;52.030;7.110;2023-09-12T13:31:00;14.18;;;9.27;;
41653;SDS011;68687;52.030;7.110;2023-09-12T13:33:26;10.60;;;9.30;;
41653;SDS011;68687;52.030;7.110;2023-09-12T13:35:51;9.60;;;8.60;;
41653;SDS011;68687;52.030;7.110;2023-09-12T13:38:17;14.20;;;10.95;;
41653;SDS011;68687;52.030;7.110;2023-09-12T13:40:44;12.15;;;9.20;;
41653;SDS011;68687;52.030;7.110;2023-09-12T13:43:10;13.10;;;9.70;;
41653;SDS011;68687;52.030;7.110;2023-09-12T13:45:36;12.57;;;9.60;;
41653;SDS011;68687;52.030;7.110;2023-09-12T13:48:02;9.88;;;8.80;;
41653;SDS011;68687;52.030;7.110;2023-09-12T13:50:28;9.70;;;8.77;;
41653;SDS011;68687;52.030;7.110;2023-09-12T13:52:54;10.05;;;8.40;;
41653;SDS011;68687;52.030;7.110;2023-09-12T13:55:21;8.80;;;7.90;;
41653;SDS011;68687;52.030;7.110;2023-09-12T13:57:46;8.63;;;7.03;;
41653;SDS011;68687;52.030;7.110;2023-09-12T14:00:15;11.55;;;8.95;;
41653;SDS011;68687;52.030;7.110;2023-09-12T14:02:40;8.27;;;7.38;;
41653;SDS011;68687;52.030;7.110;2023-09-12T14:05:05;9.45;;;8.45;;
41653;SDS011;68687;52.030;7.110;2023-09-12T14:07:31;11.77;;;7.80;;
41653;SDS011;68687;52.030;7.110;2023-09-12T14:09:59;12.47;;;8.40;;
41653;SDS011;68687;52.030;7.110;2023-09-12T14:12:24;13.13;;;8.07;;
41653;SDS011;68687;52.030;7.110;2023-09-12T14:14:56;8.63;;;7.70;;
41653;SDS011;68687;52.030;7.110;2023-09-12T14:17:24;10.30;;;8.35;;
41653;SDS011;68687;52.030;7.110;2023-09-12T14:19:53;9.35;;;6.90;;
41653;SDS011;68687;52.030;7.110;2023-09-12T14:22:18;7.60;;;6.90;;
41653;SDS011;68687;52.030;7.110;2023-09-12T14:24:43;9.67;;;6.87;;
41653;SDS011;68687;52.030;7.110;2023-09-12T14:27:09;6.53;;;5.93;;
41653;SDS011;68687;52.030;7.110;2023-09-12T14:29:34;10.13;;;7.40;;
41653;SDS011;68687;52.030;7.110;2023-09-12T14:31:59;8.07;;;7.20;;
41653;SDS011;68687;52.030;7.110;2023-09-12T14:34:25;9.97;;;8.23;;